^^
Saratoga-Weather Station Historical Data
Daily Summary for August 20, 2021 Units:  English    Metric   Both
Daily Weekly Monthly Yearly Custom
  High: Low: Average:
Temperature: 36.9 °F 30.9 °F 33.1 °F
Dew Point: 31.6 °F 26.4 °F 28.2 °F
Humidity: 88% 77% 82%
Wind Speed: 2.9mph 0mph 0.6mph
Wind Gust: 5mph - -
Wind- - SSW
Pressure: 30.4 in 30.3 in -
Precipitation: 0 in    
Historical Graphs
 
 
Tabular Data for August 20, 2021
Time Temperature Dew Point Pressure Wind Wind Speed Wind Gust Humidity Rainfall Rate (Hourly) solar
00:00 33.1 °F 26.6 °F 30.3 in Calm   1 mph 77% 0 in 0 W/m2
00:05 32.7 °F 26.6 °F 30.3 in Calm   2 mph 78% 0 in 0 W/m2
00:10 32.5 °F 26.4 °F 30.3 in Calm     78% 0 in 0 W/m2
00:15 32.5 °F 26.8 °F 30.3 in Calm   2 mph 79% 0 in 0 W/m2
00:20 32.5 °F 26.8 °F 30.3 in SE 0.9 mph 1 mph 79% 0 in 0 W/m2
00:25 32.5 °F 27.1 °F 30.3 in Calm   2 mph 80% 0 in 0 W/m2
00:30 32.5 °F 27.1 °F 30.3 in Calm   1 mph 80% 0 in 0 W/m2
00:35 32.5 °F 27.1 °F 30.3 in Calm   4 mph 80% 0 in 0 W/m2
00:40 32.5 °F 27.1 °F 30.3 in Calm     80% 0 in 0 W/m2
00:45 32.7 °F 27.3 °F 30.3 in SW 0.9 mph 4 mph 80% 0 in 0 W/m2
00:50 32.7 °F 27.3 °F 30.3 in Calm     80% 0 in 0 W/m2
00:55 32.7 °F 27.3 °F 30.3 in Calm   2 mph 80% 0 in 0 W/m2
01:00 32.7 °F 27.3 °F 30.3 in Calm   1 mph 80% 0 in 0 W/m2
01:05 32.7 °F 27 °F 30.3 in Calm   2 mph 79% 0 in 0 W/m2
01:10 32.9 °F 27.1 °F 30.3 in Calm     79% 0 in 0 W/m2
01:15 33.1 °F 27.3 °F 30.3 in Calm     79% 0 in 0 W/m2
01:20 33.3 °F 27.5 °F 30.3 in WSW 2 mph 3 mph 79% 0 in 0 W/m2
01:25 33.4 °F 27.3 °F 30.3 in Calm   1 mph 78% 0 in 0 W/m2
01:30 33.4 °F 27.3 °F 30.3 in SW 0.9 mph 2 mph 78% 0 in 0 W/m2
01:35 33.6 °F 27.5 °F 30.3 in Calm   2 mph 78% 0 in 0 W/m2
01:40 33.6 °F 27.5 °F 30.3 in Calm   2 mph 78% 0 in 0 W/m2
01:45 33.6 °F 27.5 °F 30.3 in Calm   1 mph 78% 0 in 0 W/m2
01:50 33.6 °F 27.5 °F 30.3 in WNW 0.9 mph 2 mph 78% 0 in 0 W/m2
01:55 33.6 °F 27.5 °F 30.3 in WSW 0.9 mph 2 mph 78% 0 in 0 W/m2
02:00 33.4 °F 27.7 °F 30.3 in WNW 2 mph 2 mph 79% 0 in 0 W/m2
02:05 33.6 °F 27.9 °F 30.3 in NW 2 mph 3 mph 79% 0 in 0 W/m2
02:10 34.2 °F 28 °F 30.3 in Calm   5 mph 78% 0 in 0 W/m2
02:15 34.3 °F 27.9 °F 30.3 in NW 0.9 mph 4 mph 77% 0 in 0 W/m2
02:20 34.5 °F 28 °F 30.3 in Calm   5 mph 77% 0 in 0 W/m2
02:25 34.3 °F 27.9 °F 30.3 in West 0.9 mph 2 mph 77% 0 in 0 W/m2
02:30 34.3 °F 27.9 °F 30.3 in Calm   2 mph 77% 0 in 0 W/m2
02:35 34.3 °F 28.2 °F 30.3 in West 2 mph 2 mph 78% 0 in 0 W/m2
02:40 34.2 °F 28 °F 30.3 in NW 0.9 mph 3 mph 78% 0 in 0 W/m2
02:46 34.2 °F 28 °F 30.3 in NW 2 mph 2 mph 78% 0 in 0 W/m2
02:51 34.3 °F 28.2 °F 30.3 in WNW 0.9 mph 2 mph 78% 0 in 0 W/m2
02:56 34.5 °F 28.4 °F 30.3 in NNW 2 mph 4 mph 78% 0 in 0 W/m2
03:01 34.9 °F 28.4 °F 30.3 in WNW 2.9 mph 3 mph 77% 0 in 0 W/m2
03:06 34.9 °F 28.4 °F 30.3 in Calm   1 mph 77% 0 in 0 W/m2
03:11 34.9 °F 28.4 °F 30.3 in West 0.9 mph 2 mph 77% 0 in 0 W/m2
03:16 34.9 °F 28.4 °F 30.3 in NW 0.9 mph 2 mph 77% 0 in 0 W/m2
03:21 34.9 °F 28.8 °F 30.3 in NW 2 mph 3 mph 78% 0 in 0 W/m2
03:26 34.9 °F 28.8 °F 30.3 in NNW 0.9 mph 5 mph 78% 0 in 0 W/m2
03:31 34.7 °F 28.6 °F 30.3 in Calm   1 mph 78% 0 in 0 W/m2
03:36 34.5 °F 28.4 °F 30.3 in Calm   2 mph 78% 0 in 0 W/m2
03:41 34.3 °F 28.2 °F 30.3 in ESE 0.9 mph 1 mph 78% 0 in 0 W/m2
03:46 34.2 °F 28.4 °F 30.3 in Calm   2 mph 79% 0 in 0 W/m2
03:51 34.2 °F 28.4 °F 30.3 in Calm   1 mph 79% 0 in 0 W/m2
03:56 34.2 °F 28.4 °F 30.3 in NNE 0.9 mph 2 mph 79% 0 in 0 W/m2
04:01 34.2 °F 28.4 °F 30.3 in NNE 0.9 mph 2 mph 79% 0 in 0 W/m2
04:06 34 °F 28.2 °F 30.3 in Calm   2 mph 79% 0 in 0 W/m2
04:11 33.8 °F 28.2 °F 30.3 in Calm   2 mph 80% 0 in 0 W/m2
04:16 33.6 °F 28 °F 30.3 in Calm   1 mph 80% 0 in 0 W/m2
04:21 33.3 °F 28 °F 30.3 in ENE 0.9 mph 1 mph 81% 0 in 0 W/m2
04:26 33.1 °F 27.9 °F 30.3 in Calm   1 mph 81% 0 in 0 W/m2
04:31 33.1 °F 27.9 °F 30.3 in Calm   2 mph 81% 0 in 0 W/m2
04:36 32.7 °F 27.9 °F 30.3 in Calm   2 mph 82% 0 in 0 W/m2
04:41 32.5 °F 27.7 °F 30.3 in ESE 0.9 mph 1 mph 82% 0 in 0 W/m2
04:46 32.4 °F 27.9 °F 30.3 in Calm   2 mph 83% 0 in 0 W/m2
04:51 32.2 °F 27.9 °F 30.3 in Calm   1 mph 84% 0 in 0 W/m2
04:56 31.8 °F 27.5 °F 30.3 in Calm     84% 0 in 0 W/m2
05:01 31.6 °F 27.7 °F 30.3 in Calm     85% 0 in 0 W/m2
05:06 31.5 °F 27.5 °F 30.3 in Calm   1 mph 85% 0 in 0 W/m2
05:11 31.5 °F 27.5 °F 30.3 in Calm     85% 0 in 0 W/m2
05:16 31.5 °F 27.7 °F 30.3 in Calm   1 mph 86% 0 in 0 W/m2
05:21 31.5 °F 27.7 °F 30.3 in ESE 2 mph 2 mph 86% 0 in 0 W/m2
05:26 31.5 °F 27.7 °F 30.3 in ESE 0.9 mph 2 mph 86% 0 in 0 W/m2
05:31 31.5 °F 27.7 °F 30.3 in ESE 0.9 mph 2 mph 86% 0 in 0 W/m2
05:36 31.3 °F 27.5 °F 30.3 in ESE 0.9 mph 1 mph 86% 0 in 0 W/m2
05:41 31.1 °F 27.3 °F 30.3 in Calm   1 mph 86% 0 in 0 W/m2
05:46 30.9 °F 27.5 °F 30.3 in ESE 0.9 mph 1 mph 87% 0 in 0 W/m2
05:51 31.1 °F 27.7 °F 30.3 in ESE 0.9 mph 1 mph 87% 0 in 0 W/m2
05:56 31.5 °F 28.4 °F 30.3 in ESE 0.9 mph 2 mph 88% 0 in 0 W/m2
06:01 31.6 °F 28.2 °F 30.3 in Calm   1 mph 87% 0 in 0 W/m2
06:06 31.6 °F 27.9 °F 30.3 in ESE 0.9 mph 2 mph 86% 0 in 0 W/m2
06:11 31.6 °F 28.2 °F 30.3 in ESE 0.9 mph 1 mph 87% 0 in 0 W/m2
06:16 31.6 °F 28.2 °F 30.3 in Calm   2 mph 87% 0 in 0 W/m2
06:22 31.6 °F 27.9 °F 30.3 in ESE 0.9 mph 2 mph 86% 0 in 0 W/m2
06:27 31.6 °F 27.9 °F 30.3 in Calm     86% 0 in 0 W/m2
06:32 31.6 °F 28.2 °F 30.3 in Calm   2 mph 87% 0 in 0 W/m2
06:37 31.8 °F 28.4 °F 30.3 in Calm   1 mph 87% 0 in 0 W/m2
06:42 31.8 °F 28.4 °F 30.3 in Calm   1 mph 87% 0 in 5 W/m2
06:47 31.6 °F 28.2 °F 30.3 in Calm     87% 0 in 7 W/m2
06:52 31.6 °F 28.2 °F 30.3 in Calm   1 mph 87% 0 in 9 W/m2
06:57 31.5 °F 28 °F 30.3 in Calm   1 mph 87% 0 in 12 W/m2
07:02 31.6 °F 28.2 °F 30.3 in Calm   1 mph 87% 0 in 18 W/m2
07:07 31.6 °F 28.2 °F 30.3 in Calm   1 mph 87% 0 in 18 W/m2
07:12 31.6 °F 28.2 °F 30.3 in Calm     87% 0 in 21 W/m2
07:17 31.6 °F 28.2 °F 30.3 in Calm     87% 0 in 21 W/m2
07:22 31.6 °F 28.2 °F 30.3 in Calm     87% 0 in 28 W/m2
07:27 31.6 °F 28.2 °F 30.3 in Calm     87% 0 in 35 W/m2
07:32 31.6 °F 28.2 °F 30.3 in Calm   1 mph 87% 0 in 35 W/m2
07:37 31.8 °F 28.8 °F 30.3 in WSW 0.9 mph 1 mph 88% 0 in 40 W/m2
07:42 32 °F 28.9 °F 30.3 in Calm     88% 0 in 56 W/m2
07:47 32.2 °F 28.9 °F 30.3 in Calm     88% 0 in 72 W/m2
07:52 32.5 °F 29.3 °F 30.3 in Calm     88% 0 in 83 W/m2
07:57 32.9 °F 29.5 °F 30.3 in ESE 2 mph 2 mph 87% 0 in 91 W/m2
08:02 33.4 °F 30 °F 30.3 in Calm   2 mph 87% 0 in 128 W/m2
08:07 34 °F 30.2 °F 30.3 in Calm   1 mph 86% 0 in 127 W/m2
08:12 34.3 °F 30.4 °F 30.3 in North 2 mph 3 mph 85% 0 in 77 W/m2
08:17 34.7 °F 30.4 °F 30.3 in NE 0.9 mph 3 mph 84% 0 in 88 W/m2
08:22 35.1 °F 30.4 °F 30.3 in Calm   2 mph 83% 0 in 232 W/m2
08:27 35.2 °F 30.4 °F 30.3 in North 0.9 mph 4 mph 82% 0 in 262 W/m2
08:32 35.8 °F 30.7 °F 30.3 in NNW 2 mph 3 mph 82% 0 in 267 W/m2
08:37 36 °F 30.9 °F 30.4 in North 2 mph 4 mph 82% 0 in 315 W/m2
08:42 36.3 °F 31.1 °F 30.4 in NNW 2.9 mph 4 mph 81% 0 in 308 W/m2
08:47 36.9 °F 31.6 °F 30.4 in West 2.9 mph 3 mph 81% 0 in 373 W/m2
Juneau County Weather
Compliments of Weather Underground - 4 mb